sensor_id;sensor_type;location;lat;lon;timestamp;P1;durP1;ratioP1;P2;durP2;ratioP2
51738;SDS011;37815;52.692;6.226;2023-02-18T00:04:45;3.35;;;1.17;;
51738;SDS011;37815;52.692;6.226;2023-02-18T00:09:45;4.28;;;1.33;;
51738;SDS011;37815;52.692;6.226;2023-02-18T00:14:46;3.33;;;1.20;;
51738;SDS011;37815;52.692;6.226;2023-02-18T00:19:46;3.80;;;1.40;;
51738;SDS011;37815;52.692;6.226;2023-02-18T00:24:47;5.18;;;1.42;;
51738;SDS011;37815;52.692;6.226;2023-02-18T00:29:47;2.92;;;1.00;;
51738;SDS011;37815;52.692;6.226;2023-02-18T00:34:48;1.95;;;1.10;;
51738;SDS011;37815;52.692;6.226;2023-02-18T00:39:49;3.58;;;1.17;;
51738;SDS011;37815;52.692;6.226;2023-02-18T00:44:49;1.85;;;1.10;;
51738;SDS011;37815;52.692;6.226;2023-02-18T00:49:50;4.45;;;1.33;;
51738;SDS011;37815;52.692;6.226;2023-02-18T00:54:50;2.70;;;1.30;;
51738;SDS011;37815;52.692;6.226;2023-02-18T00:59:51;3.28;;;1.20;;
51738;SDS011;37815;52.692;6.226;2023-02-18T01:04:51;4.03;;;1.50;;
51738;SDS011;37815;52.692;6.226;2023-02-18T01:09:52;3.60;;;1.60;;
51738;SDS011;37815;52.692;6.226;2023-02-18T01:14:53;1.98;;;1.10;;
51738;SDS011;37815;52.692;6.226;2023-02-18T01:19:53;3.30;;;1.13;;
51738;SDS011;37815;52.692;6.226;2023-02-18T01:24:54;3.78;;;1.30;;
51738;SDS011;37815;52.692;6.226;2023-02-18T01:29:54;5.93;;;1.30;;
51738;SDS011;37815;52.692;6.226;2023-02-18T01:34:55;3.13;;;1.60;;
51738;SDS011;37815;52.692;6.226;2023-02-18T01:39:56;4.85;;;1.42;;
51738;SDS011;37815;52.692;6.226;2023-02-18T01:50:35;2.97;;;1.33;;
51738;SDS011;37815;52.692;6.226;2023-02-18T01:55:39;4.05;;;1.50;;
51738;SDS011;37815;52.692;6.226;2023-02-18T02:00:40;5.95;;;1.50;;
51738;SDS011;37815;52.692;6.226;2023-02-18T02:05:40;2.55;;;1.52;;
51738;SDS011;37815;52.692;6.226;2023-02-18T02:10:58;4.22;;;1.50;;
51738;SDS011;37815;52.692;6.226;2023-02-18T02:38:18;4.13;;;1.65;;
51738;SDS011;37815;52.692;6.226;2023-02-18T02:43:33;2.25;;;1.48;;
51738;SDS011;37815;52.692;6.226;2023-02-18T02:49:11;5.07;;;1.65;;
51738;SDS011;37815;52.692;6.226;2023-02-18T02:54:28;2.80;;;1.88;;
51738;SDS011;37815;52.692;6.226;2023-02-18T02:59:28;6.10;;;2.50;;
51738;SDS011;37815;52.692;6.226;2023-02-18T03:04:42;5.90;;;2.03;;
51738;SDS011;37815;52.692;6.226;2023-02-18T03:09:59;4.57;;;2.03;;
51738;SDS011;37815;52.692;6.226;2023-02-18T03:15:18;6.70;;;2.40;;
51738;SDS011;37815;52.692;6.226;2023-02-18T03:20:25;5.28;;;2.00;;
51738;SDS011;37815;52.692;6.226;2023-02-18T03:25:30;5.13;;;2.30;;
51738;SDS011;37815;52.692;6.226;2023-02-18T03:30:36;4.72;;;2.67;;
51738;SDS011;37815;52.692;6.226;2023-02-18T03:35:46;7.63;;;2.90;;
51738;SDS011;37815;52.692;6.226;2023-02-18T03:40:48;8.57;;;3.38;;
51738;SDS011;37815;52.692;6.226;2023-02-18T03:45:49;7.80;;;2.42;;
51738;SDS011;37815;52.692;6.226;2023-02-18T03:50:50;7.25;;;3.30;;
51738;SDS011;37815;52.692;6.226;2023-02-18T03:55:51;5.88;;;2.60;;
51738;SDS011;37815;52.692;6.226;2023-02-18T04:00:52;6.70;;;3.35;;
51738;SDS011;37815;52.692;6.226;2023-02-18T04:05:52;8.75;;;3.25;;
51738;SDS011;37815;52.692;6.226;2023-02-18T04:10:53;7.72;;;3.63;;
51738;SDS011;37815;52.692;6.226;2023-02-18T04:15:53;7.97;;;3.75;;
51738;SDS011;37815;52.692;6.226;2023-02-18T04:20:54;7.15;;;3.53;;
51738;SDS011;37815;52.692;6.226;2023-02-18T04:25:55;11.65;;;4.00;;
51738;SDS011;37815;52.692;6.226;2023-02-18T04:30:55;10.38;;;4.13;;
51738;SDS011;37815;52.692;6.226;2023-02-18T04:35:56;9.23;;;4.03;;
51738;SDS011;37815;52.692;6.226;2023-02-18T04:40:56;10.35;;;4.75;;
51738;SDS011;37815;52.692;6.226;2023-02-18T04:45:57;12.48;;;4.75;;
51738;SDS011;37815;52.692;6.226;2023-02-18T04:50:58;10.60;;;4.95;;
51738;SDS011;37815;52.692;6.226;2023-02-18T04:55:58;14.68;;;6.18;;
51738;SDS011;37815;52.692;6.226;2023-02-18T05:01:00;14.20;;;5.25;;
51738;SDS011;37815;52.692;6.226;2023-02-18T05:06:01;15.68;;;5.82;;
51738;SDS011;37815;52.692;6.226;2023-02-18T05:11:08;11.68;;;5.47;;
51738;SDS011;37815;52.692;6.226;2023-02-18T05:16:09;13.13;;;5.57;;
51738;SDS011;37815;52.692;6.226;2023-02-18T05:21:09;16.83;;;6.70;;
51738;SDS011;37815;52.692;6.226;2023-02-18T05:26:12;15.75;;;6.50;;
51738;SDS011;37815;52.692;6.226;2023-02-18T05:31:13;14.25;;;6.03;;
51738;SDS011;37815;52.692;6.226;2023-02-18T05:36:13;13.18;;;5.32;;
51738;SDS011;37815;52.692;6.226;2023-02-18T05:41:14;18.17;;;6.80;;
51738;SDS011;37815;52.692;6.226;2023-02-18T05:46:15;16.60;;;6.75;;
51738;SDS011;37815;52.692;6.226;2023-02-18T05:51:16;15.27;;;6.15;;
51738;SDS011;37815;52.692;6.226;2023-02-18T05:56:17;15.45;;;6.70;;
51738;SDS011;37815;52.692;6.226;2023-02-18T06:01:17;12.82;;;6.13;;
51738;SDS011;37815;52.692;6.226;2023-02-18T06:06:18;13.70;;;5.78;;
51738;SDS011;37815;52.692;6.226;2023-02-18T06:11:18;13.10;;;5.72;;
51738;SDS011;37815;52.692;6.226;2023-02-18T06:16:19;12.85;;;6.05;;
51738;SDS011;37815;52.692;6.226;2023-02-18T06:21:20;12.35;;;5.75;;
51738;SDS011;37815;52.692;6.226;2023-02-18T06:26:20;14.15;;;6.20;;
51738;SDS011;37815;52.692;6.226;2023-02-18T06:31:21;13.65;;;5.90;;
51738;SDS011;37815;52.692;6.226;2023-02-18T06:36:22;10.73;;;5.35;;
51738;SDS011;37815;52.692;6.226;2023-02-18T06:41:22;13.05;;;5.53;;
51738;SDS011;37815;52.692;6.226;2023-02-18T06:46:23;13.68;;;5.63;;
51738;SDS011;37815;52.692;6.226;2023-02-18T06:51:23;12.25;;;5.03;;
51738;SDS011;37815;52.692;6.226;2023-02-18T06:56:24;12.43;;;5.47;;
51738;SDS011;37815;52.692;6.226;2023-02-18T07:01:25;11.52;;;4.70;;
51738;SDS011;37815;52.692;6.226;2023-02-18T07:06:25;14.60;;;4.47;;
51738;SDS011;37815;52.692;6.226;2023-02-18T07:11:26;11.68;;;4.70;;
51738;SDS011;37815;52.692;6.226;2023-02-18T07:16:27;7.88;;;4.30;;
51738;SDS011;37815;52.692;6.226;2023-02-18T07:21:27;10.80;;;4.35;;
51738;SDS011;37815;52.692;6.226;2023-02-18T07:26:28;9.10;;;4.00;;
51738;SDS011;37815;52.692;6.226;2023-02-18T07:31:29;10.00;;;4.63;;
51738;SDS011;37815;52.692;6.226;2023-02-18T07:36:29;9.48;;;4.68;;
51738;SDS011;37815;52.692;6.226;2023-02-18T07:41:30;11.48;;;4.95;;
51738;SDS011;37815;52.692;6.226;2023-02-18T07:46:31;7.80;;;4.28;;
51738;SDS011;37815;52.692;6.226;2023-02-18T07:51:31;8.93;;;4.22;;
51738;SDS011;37815;52.692;6.226;2023-02-18T07:56:32;7.82;;;4.07;;
51738;SDS011;37815;52.692;6.226;2023-02-18T08:01:32;7.30;;;3.67;;
51738;SDS011;37815;52.692;6.226;2023-02-18T08:06:34;10.10;;;3.90;;
51738;SDS011;37815;52.692;6.226;2023-02-18T08:11:37;8.48;;;3.90;;
51738;SDS011;37815;52.692;6.226;2023-02-18T08:16:38;12.02;;;3.60;;
51738;SDS011;37815;52.692;6.226;2023-02-18T08:21:39;8.50;;;4.35;;
51738;SDS011;37815;52.692;6.226;2023-02-18T08:26:39;6.65;;;3.80;;
51738;SDS011;37815;52.692;6.226;2023-02-18T08:31:40;8.30;;;4.05;;
51738;SDS011;37815;52.692;6.226;2023-02-18T08:36:40;7.05;;;3.50;;
51738;SDS011;37815;52.692;6.226;2023-02-18T08:41:41;8.15;;;4.07;;
51738;SDS011;37815;52.692;6.226;2023-02-18T08:46:42;7.82;;;3.10;;
51738;SDS011;37815;52.692;6.226;2023-02-18T08:51:42;7.03;;;3.45;;
51738;SDS011;37815;52.692;6.226;2023-02-18T08:56:43;6.47;;;3.85;;
51738;SDS011;37815;52.692;6.226;2023-02-18T09:01:43;8.07;;;3.40;;
51738;SDS011;37815;52.692;6.226;2023-02-18T09:06:44;7.30;;;3.47;;
51738;SDS011;37815;52.692;6.226;2023-02-18T09:11:45;7.65;;;2.95;;
51738;SDS011;37815;52.692;6.226;2023-02-18T09:16:46;7.43;;;3.10;;
51738;SDS011;37815;52.692;6.226;2023-02-18T09:21:47;6.90;;;2.70;;
51738;SDS011;37815;52.692;6.226;2023-02-18T09:26:47;5.45;;;2.75;;
51738;SDS011;37815;52.692;6.226;2023-02-18T09:31:48;6.22;;;2.67;;
51738;SDS011;37815;52.692;6.226;2023-02-18T09:36:49;6.70;;;2.38;;
51738;SDS011;37815;52.692;6.226;2023-02-18T09:41:53;6.60;;;2.45;;
51738;SDS011;37815;52.692;6.226;2023-02-18T09:47:14;6.53;;;2.30;;
51738;SDS011;37815;52.692;6.226;2023-02-18T09:52:23;5.75;;;2.20;;
51738;SDS011;37815;52.692;6.226;2023-02-18T09:57:29;5.38;;;2.08;;
51738;SDS011;37815;52.692;6.226;2023-02-18T10:02:48;10.40;;;2.80;;
51738;SDS011;37815;52.692;6.226;2023-02-18T10:08:06;5.28;;;2.17;;
51738;SDS011;37815;52.692;6.226;2023-02-18T10:13:22;5.72;;;2.10;;
51738;SDS011;37815;52.692;6.226;2023-02-18T10:18:28;7.57;;;2.87;;
51738;SDS011;37815;52.692;6.226;2023-02-18T10:23:36;6.97;;;2.17;;
51738;SDS011;37815;52.692;6.226;2023-02-18T10:28:42;4.18;;;1.77;;
51738;SDS011;37815;52.692;6.226;2023-02-18T10:44:24;3.72;;;1.25;;
51738;SDS011;37815;52.692;6.226;2023-02-18T10:49:53;11.68;;;1.60;;
51738;SDS011;37815;52.692;6.226;2023-02-18T10:55:00;2.75;;;1.23;;
51738;SDS011;37815;52.692;6.226;2023-02-18T11:05:25;7.78;;;1.65;;
51738;SDS011;37815;52.692;6.226;2023-02-18T11:10:30;5.93;;;1.67;;
51738;SDS011;37815;52.692;6.226;2023-02-18T11:15:32;6.75;;;1.48;;
51738;SDS011;37815;52.692;6.226;2023-02-18T11:20:35;6.72;;;1.60;;
51738;SDS011;37815;52.692;6.226;2023-02-18T11:25:38;6.03;;;1.95;;
51738;SDS011;37815;52.692;6.226;2023-02-18T11:30:42;6.63;;;2.42;;
51738;SDS011;37815;52.692;6.226;2023-02-18T11:36:03;8.65;;;2.05;;
51738;SDS011;37815;52.692;6.226;2023-02-18T11:41:17;6.82;;;2.15;;
51738;SDS011;37815;52.692;6.226;2023-02-18T11:46:22;3.95;;;1.20;;
51738;SDS011;37815;52.692;6.226;2023-02-18T11:51:32;7.38;;;1.70;;
51738;SDS011;37815;52.692;6.226;2023-02-18T11:56:37;4.95;;;1.52;;
51738;SDS011;37815;52.692;6.226;2023-02-18T12:01:45;8.52;;;1.70;;
51738;SDS011;37815;52.692;6.226;2023-02-18T12:12:05;5.32;;;1.42;;
51738;SDS011;37815;52.692;6.226;2023-02-18T12:22:44;7.20;;;1.70;;
51738;SDS011;37815;52.692;6.226;2023-02-18T12:33:12;11.27;;;2.03;;
51738;SDS011;37815;52.692;6.226;2023-02-18T12:44:16;6.05;;;1.63;;
51738;SDS011;37815;52.692;6.226;2023-02-18T13:00:40;5.07;;;1.73;;
51738;SDS011;37815;52.692;6.226;2023-02-18T13:11:04;7.55;;;1.63;;
51738;SDS011;37815;52.692;6.226;2023-02-18T13:16:15;9.45;;;2.45;;
51738;SDS011;37815;52.692;6.226;2023-02-18T13:21:18;5.25;;;2.00;;
51738;SDS011;37815;52.692;6.226;2023-02-18T13:26:19;4.53;;;1.40;;
51738;SDS011;37815;52.692;6.226;2023-02-18T13:31:36;5.97;;;1.55;;
51738;SDS011;37815;52.692;6.226;2023-02-18T13:37:05;5.93;;;1.33;;
51738;SDS011;37815;52.692;6.226;2023-02-18T13:52:37;4.40;;;1.20;;
51738;SDS011;37815;52.692;6.226;2023-02-18T13:57:38;3.88;;;1.40;;
51738;SDS011;37815;52.692;6.226;2023-02-18T14:02:40;5.90;;;1.40;;
51738;SDS011;37815;52.692;6.226;2023-02-18T14:08:10;5.40;;;1.55;;
51738;SDS011;37815;52.692;6.226;2023-02-18T14:18:23;4.28;;;1.77;;
51738;SDS011;37815;52.692;6.226;2023-02-18T14:24:11;5.65;;;1.50;;
51738;SDS011;37815;52.692;6.226;2023-02-18T14:28:58;5.07;;;1.65;;
51738;SDS011;37815;52.692;6.226;2023-02-18T14:50:32;4.35;;;1.17;;
51738;SDS011;37815;52.692;6.226;2023-02-18T14:55:36;6.30;;;1.58;;
51738;SDS011;37815;52.692;6.226;2023-02-18T15:00:42;2.35;;;1.02;;
51738;SDS011;37815;52.692;6.226;2023-02-18T15:05:43;4.20;;;1.27;;
51738;SDS011;37815;52.692;6.226;2023-02-18T15:10:52;3.10;;;1.30;;
51738;SDS011;37815;52.692;6.226;2023-02-18T15:16:02;4.78;;;1.40;;
51738;SDS011;37815;52.692;6.226;2023-02-18T15:21:12;4.70;;;1.08;;
51738;SDS011;37815;52.692;6.226;2023-02-18T15:26:20;6.03;;;1.10;;
51738;SDS011;37815;52.692;6.226;2023-02-18T15:31:24;3.80;;;1.08;;
51738;SDS011;37815;52.692;6.226;2023-02-18T15:36:26;4.78;;;1.02;;
51738;SDS011;37815;52.692;6.226;2023-02-18T15:41:26;4.80;;;1.10;;
51738;SDS011;37815;52.692;6.226;2023-02-18T15:46:28;2.92;;;1.30;;
51738;SDS011;37815;52.692;6.226;2023-02-18T15:51:30;6.00;;;1.10;;
51738;SDS011;37815;52.692;6.226;2023-02-18T15:56:33;2.63;;;1.30;;
51738;SDS011;37815;52.692;6.226;2023-02-18T16:01:37;2.47;;;1.00;;
51738;SDS011;37815;52.692;6.226;2023-02-18T16:06:38;3.13;;;1.08;;
51738;SDS011;37815;52.692;6.226;2023-02-18T16:11:49;3.20;;;1.20;;
51738;SDS011;37815;52.692;6.226;2023-02-18T16:16:59;4.67;;;1.30;;
51738;SDS011;37815;52.692;6.226;2023-02-18T16:27:36;3.13;;;1.10;;
51738;SDS011;37815;52.692;6.226;2023-02-18T16:32:44;4.47;;;1.23;;
51738;SDS011;37815;52.692;6.226;2023-02-18T16:37:45;3.05;;;1.10;;
51738;SDS011;37815;52.692;6.226;2023-02-18T16:42:49;5.72;;;1.38;;
51738;SDS011;37815;52.692;6.226;2023-02-18T16:47:50;3.03;;;0.95;;
51738;SDS011;37815;52.692;6.226;2023-02-18T16:52:51;2.05;;;0.90;;
51738;SDS011;37815;52.692;6.226;2023-02-18T16:57:51;1.98;;;0.90;;
51738;SDS011;37815;52.692;6.226;2023-02-18T17:02:53;3.92;;;0.90;;
51738;SDS011;37815;52.692;6.226;2023-02-18T17:08:05;3.97;;;1.23;;
51738;SDS011;37815;52.692;6.226;2023-02-18T17:13:17;3.80;;;0.98;;
51738;SDS011;37815;52.692;6.226;2023-02-18T17:18:20;2.92;;;1.23;;
51738;SDS011;37815;52.692;6.226;2023-02-18T17:23:22;1.88;;;0.98;;
51738;SDS011;37815;52.692;6.226;2023-02-18T17:28:23;3.35;;;1.40;;
51738;SDS011;37815;52.692;6.226;2023-02-18T17:33:24;2.22;;;1.10;;
51738;SDS011;37815;52.692;6.226;2023-02-18T17:38:25;3.50;;;1.08;;
51738;SDS011;37815;52.692;6.226;2023-02-18T17:43:25;6.13;;;1.45;;
51738;SDS011;37815;52.692;6.226;2023-02-18T17:48:26;3.08;;;1.20;;
51738;SDS011;37815;52.692;6.226;2023-02-18T17:53:27;2.83;;;1.15;;
51738;SDS011;37815;52.692;6.226;2023-02-18T17:58:28;4.32;;;0.95;;
51738;SDS011;37815;52.692;6.226;2023-02-18T18:03:29;3.35;;;1.10;;
51738;SDS011;37815;52.692;6.226;2023-02-18T18:08:30;3.38;;;1.40;;
51738;SDS011;37815;52.692;6.226;2023-02-18T18:13:31;2.67;;;1.30;;
51738;SDS011;37815;52.692;6.226;2023-02-18T18:18:32;3.20;;;1.08;;
51738;SDS011;37815;52.692;6.226;2023-02-18T18:23:33;3.25;;;1.00;;
51738;SDS011;37815;52.692;6.226;2023-02-18T18:28:33;4.65;;;1.40;;
51738;SDS011;37815;52.692;6.226;2023-02-18T18:33:34;2.80;;;1.27;;
51738;SDS011;37815;52.692;6.226;2023-02-18T18:38:38;2.75;;;1.10;;
51738;SDS011;37815;52.692;6.226;2023-02-18T18:43:39;2.22;;;0.90;;
51738;SDS011;37815;52.692;6.226;2023-02-18T18:48:39;4.57;;;1.40;;
51738;SDS011;37815;52.692;6.226;2023-02-18T18:53:40;2.65;;;1.15;;
51738;SDS011;37815;52.692;6.226;2023-02-18T18:58:41;3.58;;;1.05;;
51738;SDS011;37815;52.692;6.226;2023-02-18T19:03:41;2.90;;;1.30;;
51738;SDS011;37815;52.692;6.226;2023-02-18T19:08:43;2.90;;;1.15;;
51738;SDS011;37815;52.692;6.226;2023-02-18T19:13:45;1.92;;;1.20;;
51738;SDS011;37815;52.692;6.226;2023-02-18T19:18:46;2.70;;;0.85;;
51738;SDS011;37815;52.692;6.226;2023-02-18T19:23:47;2.65;;;1.30;;
51738;SDS011;37815;52.692;6.226;2023-02-18T19:28:47;1.83;;;1.05;;
51738;SDS011;37815;52.692;6.226;2023-02-18T19:33:48;4.25;;;1.40;;
51738;SDS011;37815;52.692;6.226;2023-02-18T19:38:50;2.17;;;1.42;;
51738;SDS011;37815;52.692;6.226;2023-02-18T19:43:52;4.63;;;1.48;;
51738;SDS011;37815;52.692;6.226;2023-02-18T19:48:53;1.92;;;1.17;;
51738;SDS011;37815;52.692;6.226;2023-02-18T19:53:54;2.13;;;0.98;;
51738;SDS011;37815;52.692;6.226;2023-02-18T19:58:55;1.88;;;1.10;;
51738;SDS011;37815;52.692;6.226;2023-02-18T20:03:56;2.30;;;1.30;;
51738;SDS011;37815;52.692;6.226;2023-02-18T20:08:58;3.03;;;1.10;;
51738;SDS011;37815;52.692;6.226;2023-02-18T20:13:59;3.67;;;1.33;;
51738;SDS011;37815;52.692;6.226;2023-02-18T20:19:00;2.33;;;1.17;;
51738;SDS011;37815;52.692;6.226;2023-02-18T20:24:00;4.22;;;1.30;;
51738;SDS011;37815;52.692;6.226;2023-02-18T20:29:01;2.40;;;1.25;;
51738;SDS011;37815;52.692;6.226;2023-02-18T20:34:01;2.58;;;1.45;;
51738;SDS011;37815;52.692;6.226;2023-02-18T20:39:02;2.65;;;1.40;;
51738;SDS011;37815;52.692;6.226;2023-02-18T20:44:03;3.65;;;1.75;;
51738;SDS011;37815;52.692;6.226;2023-02-18T20:49:05;3.42;;;1.50;;
51738;SDS011;37815;52.692;6.226;2023-02-18T20:54:08;4.53;;;1.48;;
51738;SDS011;37815;52.692;6.226;2023-02-18T20:59:15;2.15;;;1.65;;
51738;SDS011;37815;52.692;6.226;2023-02-18T21:04:18;3.15;;;1.60;;
51738;SDS011;37815;52.692;6.226;2023-02-18T21:09:19;4.95;;;2.00;;
51738;SDS011;37815;52.692;6.226;2023-02-18T21:14:20;2.25;;;1.42;;
51738;SDS011;37815;52.692;6.226;2023-02-18T21:19:21;6.30;;;1.70;;
51738;SDS011;37815;52.692;6.226;2023-02-18T21:24:21;3.17;;;1.70;;
51738;SDS011;37815;52.692;6.226;2023-02-18T21:29:22;4.10;;;1.88;;
51738;SDS011;37815;52.692;6.226;2023-02-18T21:34:22;4.35;;;2.28;;
51738;SDS011;37815;52.692;6.226;2023-02-18T21:39:24;3.63;;;1.90;;
51738;SDS011;37815;52.692;6.226;2023-02-18T21:44:25;4.30;;;2.50;;
51738;SDS011;37815;52.692;6.226;2023-02-18T21:49:26;5.32;;;1.98;;
51738;SDS011;37815;52.692;6.226;2023-02-18T21:54:27;3.47;;;2.08;;
51738;SDS011;37815;52.692;6.226;2023-02-18T21:59:33;6.85;;;2.00;;
51738;SDS011;37815;52.692;6.226;2023-02-18T22:04:35;4.07;;;1.98;;
51738;SDS011;37815;52.692;6.226;2023-02-18T22:09:36;6.15;;;2.50;;
51738;SDS011;37815;52.692;6.226;2023-02-18T22:14:40;5.32;;;2.33;;
51738;SDS011;37815;52.692;6.226;2023-02-18T22:19:41;3.13;;;2.03;;
51738;SDS011;37815;52.692;6.226;2023-02-18T22:24:42;6.47;;;2.78;;
51738;SDS011;37815;52.692;6.226;2023-02-18T22:29:42;3.90;;;2.47;;
51738;SDS011;37815;52.692;6.226;2023-02-18T22:34:43;6.95;;;2.80;;
51738;SDS011;37815;52.692;6.226;2023-02-18T22:39:44;4.25;;;2.47;;
51738;SDS011;37815;52.692;6.226;2023-02-18T22:44:44;8.48;;;3.10;;
51738;SDS011;37815;52.692;6.226;2023-02-18T22:49:45;5.20;;;3.10;;
51738;SDS011;37815;52.692;6.226;2023-02-18T22:54:45;7.55;;;2.75;;
51738;SDS011;37815;52.692;6.226;2023-02-18T22:59:46;6.43;;;2.67;;
51738;SDS011;37815;52.692;6.226;2023-02-18T23:04:46;5.95;;;3.10;;
51738;SDS011;37815;52.692;6.226;2023-02-18T23:09:47;6.55;;;2.88;;
51738;SDS011;37815;52.692;6.226;2023-02-18T23:14:48;4.32;;;2.42;;
51738;SDS011;37815;52.692;6.226;2023-02-18T23:19:49;4.22;;;2.72;;
51738;SDS011;37815;52.692;6.226;2023-02-18T23:24:51;6.32;;;2.60;;
51738;SDS011;37815;52.692;6.226;2023-02-18T23:29:51;4.88;;;3.05;;
51738;SDS011;37815;52.692;6.226;2023-02-18T23:34:52;6.38;;;3.17;;
51738;SDS011;37815;52.692;6.226;2023-02-18T23:39:53;5.22;;;2.80;;
51738;SDS011;37815;52.692;6.226;2023-02-18T23:44:53;5.72;;;3.35;;
51738;SDS011;37815;52.692;6.226;2023-02-18T23:49:55;5.97;;;2.67;;
51738;SDS011;37815;52.692;6.226;2023-02-18T23:54:55;6.72;;;2.80;;
51738;SDS011;37815;52.692;6.226;2023-02-18T23:59:56;6.40;;;3.22;;
